Nate Harrison Grade (214) Station Data

Red Flag Warning: No
Fire Weather Zone: 250
SDGE Region: North East
Lat/Lon: 33.322/-116.962

Observations

Time Wind Speed/Gust Temp(F) RH Fuel Moist Fuel Temp(F) Dewpt(F) Tmax(F) Tmin(F) Accum Precip 10-min Precip SL Press(mb)
5/24 8:20am 280 2 G 4 64° 73% - - 55° 71.5° 53.1° - - -
5/24 8:10am 52 3 G 6 67° 59% - - 52° 71.5° 53.1° - - -
5/24 8:00am 152 3 G 5 64° 66% - - 53° 71.5° 53.1° - - -
5/24 7:50am 112 4 G 7 63° 67% - - 52° 71.5° 53.1° - - -
5/24 7:40am 72 4 G 8 55° 95% - - 53° 71.5° 53.1° - - -
5/24 7:30am 282 3 G 8 57° 82% - - 52° 71.5° 53.4° - - -
5/24 7:20am 88 2 G 4 63° 64% - - 51° 71.5° 60.3° - - -
5/24 7:10am 53 2 G 4 61° 68% - - 50° 71.5° 60.3° - - -
5/24 7:00am 317 2 G 4 63° 63% - - 50° 71.5° 61.1° - - -
5/24 6:50am 343 2 G 3 64° 59% - - 49° 71.5° 61.6° - - -
5/24 6:40am 349 3 G 4 63° 61% - - 50° 71.5° 61.6° - - -
5/24 6:30am 324 3 G 5 66° 46% - - 45° 71.5° 61.6° - - -
5/24 6:20am 18 3 G 5 67° 44% - - 44° 71.5° 61.6° - - -
5/24 6:10am 353 2 G 4 67° 46% - - 45° 71.5° 61.6° - - -
5/24 6:00am 7 2 G 4 69° 40% - - 44° 71.5° 61.6° - - -
5/24 5:50am 139 2 G 4 68° 43% - - 45° 71.5° 61.6° - - -
5/24 5:40am 49 3 G 4 67° 46% - - 46° 71.5° 61.6° - - -
5/24 5:30am 62 3 G 5 69° 43% - - 46° 71.5° 61.6° - - -
5/24 5:20am 89 6 G 8 67° 48% - - 46° 70.5° 61.6° - - -
5/24 5:10am 134 3 G 5 65° 57% - - 49° 70.5° 61.6° - - -
5/24 5:00am 136 3 G 5 67° 53% - - 49° 70.5° 61.6° - - -
5/24 4:50am 133 3 G 4 65° 59% - - 50° 70.5° 61.6° - - -
5/24 4:40am 104 3 G 5 65° 56% - - 49° 70.5° 61.6° - - -
5/24 4:30am 20 1 G 3 63° 64% - - 50° 70.5° 61.6° - - -
5/24 4:20am 260 2 G 3 66° 57% - - 50° 70.5° 63.3° - - -
5/24 4:10am 169 0 G 3 66° 54% - - 49° 70.5° 63.4° - - -
5/24 4:00am 90 0 G 2 66° 54% - - 49° 70.5° 63.4° - - -
5/24 3:50am 93 0 G 1 66° 57% - - 50° 70.5° 63.4° - - -
5/24 3:40am 181 1 G 3 67° 54% - - 50° 70.5° 63.4° - - -
5/24 3:30am 119 2 G 3 67° 52% - - 49° 70.5° 63.4° - - -
5/24 3:20am 0 0 G 0 66° 52% - - 48° 70.5° 63.4° - - -
5/24 3:10am 0 0 G 0 66° 51% - - 47° 70.5° 63.4° - - -
5/24 3:00am 153 0 G 1 66° 56% - - 50° 70.5° 63.4° - - -
5/24 2:50am 126 2 G 4 66° 58% - - 50° 70.5° 63.4° - - -
5/24 2:40am 161 3 G 4 65° 59% - - 50° 70.5° 63.4° - - -
5/24 2:30am 80 2 G 4 65° 55% - - 48° 70.5° 63.4° - - -
5/24 2:20am 28 2 G 4 65° 53% - - 48° 70.5° 63.4° - - -
5/24 2:10am 10 3 G 4 65° 64% - - 52° 70.5° 63.4° - - -
5/24 2:00am 333 2 G 4 66° 57% - - 50° 70.5° 63.4° - - -
5/24 1:50am 22 3 G 6 68° 49% - - 49° 70.5° 63.4° - - -
5/24 1:40am 46 4 G 7 65° 60% - - 51° 70.5° 63.4° - - -
5/24 1:30am 239 2 G 4 68° 54% - - 50° 70.5° 64.3° - - -
5/24 1:20am 331 1 G 2 68° 47% - - 47° 70.5° 64.3° - - -
5/24 1:10am 36 1 G 3 67° 56% - - 50° 70.5° 64.3° - - -
5/24 1:00am 34 1 G 3 66° 60% - - 52° 70.5° 64.3° - - -
5/24 12:50am 173 2 G 5 67° 63% - - 54° 70.5° 64.3° - - -
5/24 12:40am 50 1 G 3 67° 64% - - 54° 70.5° 64.3° - - -
5/24 12:30am 44 1 G 2 65° 67% - - 54° 70.5° 64.3° - - -
5/24 12:20am 13 1 G 4 67° 63% - - 54° 70.5° 64.9° - - -
5/24 12:10am 28 3 G 5 69° 55% - - 52° 70.5° 67.7° - - -
5/24 12:00am 31 3 G 5 66° 66% - - 54° 88.5° 64.9° - - -
5/23 11:50pm 213 1 G 2 68° 60% - - 54° 88.5° 65.8° - - -
5/23 11:40pm 36 1 G 2 69° 57% - - 53° 88.5° 65.8° - - -
5/23 11:30pm 156 3 G 4 68° 61% - - 54° 88.5° 65.8° - - -
5/23 11:20pm 150 1 G 4 67° 62% - - 54° 88.5° 65.8° - - -
5/23 11:10pm 122 1 G 2 68° 58% - - 53° 88.5° 65.8° - - -
5/23 11:00pm 266 1 G 3 72° 49% - - 51° 88.5° 65.8° - - -
5/23 10:50pm 35 2 G 3 73° 49% - - 52° 88.5° 65.8° - - -
5/23 10:40pm 43 0 G 2 72° 54% - - 55° 88.5° 65.8° - - -
5/23 10:30pm 143 1 G 2 72° 55% - - 55° 88.5° 65.8° - - -
5/23 10:20pm 132 1 G 2 72° 54% - - 55° 88.5° 65.8° - - -
5/23 10:10pm 25 1 G 2 71° 52% - - 53° 88.5° 65.8° - - -
5/23 10:00pm 59 2 G 5 72° 53% - - 54° 88.5° 65.8° - - -
5/23 9:50pm 136 3 G 4 73° 51% - - 54° 88.5° 65.8° - - -
5/23 9:40pm 122 2 G 3 71° 58% - - 56° 88.5° 65.8° - - -
5/23 9:30pm 157 2 G 3 72° 56% - - 56° 88.5° 65.8° - - -
5/23 9:20pm 123 4 G 7 72° 57% - - 56° 88.5° 65.8° - - -
5/23 9:10pm 122 4 G 6 71° 59% - - 56° 88.5° 65.8° - - -
5/23 9:00pm 155 3 G 4 71° 60% - - 56° 88.5° 65.8° - - -
5/23 8:50pm 159 2 G 3 71° 59% - - 56° 88.5° 65.8° - - -
5/23 8:40pm 110 2 G 4 72° 58% - - 56° 88.5° 65.8° - - -
5/23 8:30pm 114 4 G 5 72° 58% - - 56° 88.5° 65.8° - - -
5/23 8:20pm 103 3 G 5 71° 59% - - 56° 88.5° 65.8° - - -
5/23 8:10pm 34 1 G 3 70° 62% - - 56° 88.5° 65.8° - - -
5/23 8:00pm 14 0 G 2 70° 61% - - 56° 88.5° 65.8° - - -
5/23 7:50pm 319 2 G 2 71° 60% - - 56° 88.5° 65.8° - - -
5/23 7:40pm 304 1 G 2 73° 58% - - 57° 88.5° 65.8° - - -
5/23 7:30pm 322 2 G 3 73° 57% - - 57° 88.5° 65.8° - - -
5/23 7:20pm 316 3 G 4 73° 56% - - 57° 88.5° 65.8° - - -
5/23 7:10pm 328 4 G 5 73° 58% - - 57° 88.5° 65.8° - - -
5/23 7:00pm 327 4 G 6 74° 57% - - 57° 88.5° 65.8° - - -
5/23 6:50pm 310 4 G 6 76° 53% - - 58° 88.5° 65.8° - - -
5/23 6:40pm 302 4 G 5 78° 48% - - 57° 88.5° 65.8° - - -
5/23 6:30pm 311 4 G 6 78° 48% - - 57° 88.5° 65.8° - - -
5/23 6:20pm 309 5 G 7 79° 46% - - 57° 88.5° 65.8° - - -
5/23 6:10pm 308 5 G 7 81° 42% - - 55° 88.5° 65.8° - - -
5/23 6:00pm 307 5 G 8 82° 39% - - 55° 88.5° 65.8° - - -
5/23 5:50pm 305 5 G 8 83° 36% - - 54° 88.5° 65.8° - - -
5/23 5:40pm 313 4 G 8 84° 33% - - 52° 88.5° 65.8° - - -
5/23 5:30pm 309 4 G 6 86° 29% - - 50° 88.5° 65.8° - - -
5/23 5:20pm 301 3 G 6 86° 28% - - 49° 88.5° 65.8° - - -
5/23 5:10pm 248 3 G 6 86° 28% - - 49° 88.5° 65.8° - - -
5/23 5:00pm 282 2 G 5 87° 28% - - 50° 88.5° 65.8° - - -
5/23 4:50pm 260 3 G 9 86° 28% - - 50° 88.5° 65.8° - - -
5/23 4:40pm 267 2 G 7 87° 29% - - 51° 88.5° 65.8° - - -
5/23 4:30pm 284 2 G 6 86° 29% - - 50° 88.5° 65.8° - - -
5/23 4:20pm 308 3 G 5 84° 31% - - 51° 88.5° 65.8° - - -
5/23 4:10pm 305 3 G 6 84° 33% - - 52° 88.5° 65.8° - - -
5/23 4:00pm 288 3 G 7 84° 35% - - 53° 88.5° 65.8° - - -
5/23 3:50pm 309 4 G 6 82° 39% - - 55° 88.5° 65.8° - - -
5/23 3:40pm 283 3 G 7 83° 41% - - 57° 88.5° 65.8° - - -
5/23 3:30pm 295 3 G 7 82° 43% - - 57° 88.5° 65.8° - - -
5/23 3:20pm 311 4 G 8 80° 46% - - 57° 88.5° 65.8° - - -
5/23 3:10pm 309 4 G 8 80° 47% - - 58° 88.5° 65.8° - - -
5/23 3:00pm 291 4 G 9 79° 50% - - 59° 88.5° 65.8° - - -
5/23 2:50pm 324 5 G 9 77° 53% - - 59° 88.5° 65.8° - - -
5/23 2:40pm 324 7 G 10 77° 54% - - 59° 88.5° 65.8° - - -
5/23 2:30pm 306 7 G 11 77° 54% - - 59° 88.5° 65.8° - - -
5/23 2:20pm 306 6 G 11 78° 53% - - 59° 88.5° 65.8° - - -
5/23 2:10pm 305 5 G 10 79° 52% - - 59° 88.5° 65.8° - - -
5/23 2:00pm 307 5 G 9 78° 53% - - 59° 88.5° 65.8° - - -
5/23 1:50pm 317 4 G 7 77° 54% - - 59° 88.5° 65.8° - - -
5/23 1:40pm 306 4 G 9 77° 54% - - 59° 88.5° 65.8° - - -
5/23 1:30pm 302 6 G 10 76° 55% - - 59° 88.5° 65.8° - - -
5/23 1:20pm 306 6 G 9 76° 55% - - 59° 88.5° 65.8° - - -
5/23 1:10pm 306 6 G 10 76° 55% - - 59° 88.5° 65.8° - - -
5/23 1:00pm 304 6 G 9 76° 54% - - 58° 88.5° 65.8° - - -
5/23 12:50pm 299 6 G 10 77° 53% - - 58° 88.5° 65.8° - - -
5/23 12:40pm 304 7 G 11 78° 50% - - 58° 88.5° 65.8° - - -
5/23 12:30pm 311 7 G 11 79° 47% - - 57° 88.5° 65.8° - - -
5/23 12:20pm 311 9 G 12 80° 44% - - 56° 88.5° 65.8° - - -
5/23 12:10pm 302 8 G 12 85° 33% - - 53° 88.5° 65.8° - - -
5/23 12:00pm 291 3 G 8 87° 29% - - 51° 88.5° 65.8° - - -
5/23 11:50am 301 4 G 8 87° 29% - - 50° 88.4° 65.8° - - -
5/23 11:40am 271 3 G 8 87° 28% - - 50° 88.4° 65.8° - - -
5/23 11:30am 305 3 G 6 85° 31% - - 51° 86.6° 65.8° - - -
5/23 11:20am 318 3 G 6 84° 34% - - 53° 85° 65.8° - - -
5/23 11:10am 316 3 G 5 84° 35% - - 53° 85° 65.8° - - -
5/23 11:00am 270 3 G 6 84° 36% - - 54° 85° 65.8° - - -
5/23 10:50am 295 2 G 6 84° 35% - - 53° 84.8° 65.8° - - -
5/23 10:40am 284 1 G 3 82° 36% - - 53° 83.5° 65.8° - - -
5/23 10:30am 303 2 G 4 80° 38% - - 53° 81.5° 65.8° - - -
5/23 10:20am 288 2 G 4 81° 40% - - 54° 81.5° 65.8° - - -
5/23 10:10am 249 3 G 5 81° 38% - - 53° 81.5° 65.8° - - -
5/23 10:00am 187 3 G 5 79° 38% - - 51° 80.7° 65.8° - - -
5/23 9:50am 324 1 G 4 76° 48% - - 55° 77.6° 65.8° - - -
5/23 9:40am 260 2 G 4 76° 49% - - 56° 76.9° 65.8° - - -
5/23 9:30am 241 1 G 4 75° 51% - - 56° 76.4° 65.8° - - -
5/23 9:20am 280 1 G 2 75° 50% - - 55° 75.5° 65.8° - - -
5/23 9:10am 293 1 G 2 74° 51% - - 55° 75.3° 65.8° - - -
5/23 9:00am 274 1 G 2 73° 49% - - 53° 75.3° 65.8° - - -
5/23 8:50am 220 2 G 3 74° 47% - - 52° 75.3° 65.8° - - -
5/23 8:40am 75 1 G 3 74° 41% - - 49° 75.3° 65.8° - - -
5/23 8:30am 224 0 G 2 71° 50% - - 52° 73.4° 65.8° - - -
5/23 8:20am 236 2 G 4 72° 45% - - 49° 73.4° 65.8° - - -
5/23 8:10am 60 1 G 2 72° 40% - - 46° 73.4° 65.8° - - -
5/23 8:00am 15 0 G 2 70° 40% - - 45° 72.1° 65.8° - - -
5/23 7:50am 233 1 G 3 71° 41% - - 46° 72.1° 65.8° - - -
5/23 7:40am 32 1 G 2 71° 37% - - 43° 72° 65.8° - - -
5/23 7:30am 198 0 G 3 70° 39% - - 44° 72° 65.8° - - -
5/23 7:20am 160 1 G 2 71° 34% - - 42° 72° 65.8° - - -
5/23 7:10am 50 2 G 3 69° 37% - - 42° 71.5° 65.8° - - -
5/23 7:00am 149 1 G 4 69° 38% - - 43° 71.5° 65.8° - - -
5/23 6:50am 52 1 G 3 70° 34% - - 41° 71.5° 65.8° - - -
5/23 6:40am 31 2 G 3 70° 35% - - 41° 71.5° 65.8° - - -
5/23 6:30am 4 1 G 3 70° 34% - - 41° 71.5° 65.8° - - -
5/23 6:20am 41 2 G 3 70° 36% - - 42° 71.5° 65.8° - - -
5/23 6:10am 17 1 G 3 69° 40% - - 44° 71.5° 65.8° - - -
5/23 6:00am 182 0 G 2 69° 42% - - 45° 71.5° 65.8° - - -